Terminal Aerodrome Forecast
Issued by NWS

Home | Current Version | Previous Version | Text Only | Print | Product List | Glossary On
Versions: 1 2 3 4 5 6 7 8 9 10 11 12 13 14 15
000
FTUS43 KBIS 211100
TAFJMS
TAF
KJMS 211120Z 2112/2212 14015KT P6SM SKC WS020/16045KT
     FM211900 15018G29KT P6SM FEW250
     FM220100 15018KT P6SM SCT120 SCT150
     FM221100 17012KT P6SM SCT050 BKN100=

USA.gov is the U.S. government's official web portal to all federal, state and local government web resources and services.